Time;durP1;ratioP1;P1;durP2;ratioP2;P2;SDS_P1;SDS_P2;PMS_P1;PMS_P2;Temp;Humidity;BMP_temperature;BMP_pressure;BME280_temperature;BME280_humidity;BME280_pressure;Samples;Min_cycle;Max_cycle;Signal;HPM_P1;HPM_P2
2022/09/18 00:00:49;;;;;;;2.88;1.88;;;;;;;;;;2080182;28;20045;-92
2022/09/18 00:01:50;;;;;;;4.35;2.35;;;;;;;;;;2079576;28;20583;-92
2022/09/18 00:02:51;;;;;;;4.25;2.13;;;;;;;;;;2079711;28;20143;-91
2022/09/18 00:03:57;;;;;;;2.80;2.13;;;;;;;;;;2079720;28;20018;-91
2022/09/18 00:04:57;;;;;;;2.92;2.00;;;;;;;;;;2079680;28;20388;-92
2022/09/18 00:06:05;;;;;;;4.45;2.20;;;;;;;;;;2071261;28;20021;-93
2022/09/18 00:07:06;;;;;;;4.00;1.90;;;;;;;;;;2072660;28;20056;-92
2022/09/18 00:08:07;;;;;;;5.00;2.03;;;;;;;;;;2071572;28;20044;-92
2022/09/18 00:09:11;;;;;;;2.55;1.60;;;;;;;;;;2079564;28;20642;-93
2022/09/18 00:10:11;;;;;;;4.93;2.35;;;;;;;;;;2071847;28;20512;-91
2022/09/18 00:11:14;;;;;;;4.80;2.00;;;;;;;;;;2071317;28;20037;-91
2022/09/18 00:12:15;;;;;;;3.50;1.80;;;;;;;;;;2079558;28;20523;-93
2022/09/18 00:13:15;;;;;;;2.95;2.03;;;;;;;;;;2071453;28;20082;-91
2022/09/18 00:14:19;;;;;;;3.55;2.10;;;;;;;;;;2079578;28;20477;-92
2022/09/18 00:15:19;;;;;;;4.22;2.20;;;;;;;;;;2080496;28;20037;-92
2022/09/18 00:16:24;;;;;;;6.20;2.33;;;;;;;;;;2079394;28;20025;-92
2022/09/18 00:17:25;;;;;;;2.83;2.50;;;;;;;;;;2072091;28;20030;-92
2022/09/18 00:18:25;;;;;;;6.63;2.72;;;;;;;;;;2071430;28;20026;-92
2022/09/18 00:19:26;;;;;;;2.25;1.70;;;;;;;;;;2071834;28;20022;-92
2022/09/18 00:20:26;;;;;;;2.72;1.90;;;;;;;;;;2087972;28;20025;-92
2022/09/18 00:21:28;;;;;;;5.72;2.30;;;;;;;;;;2087824;28;20071;-93
2022/09/18 00:22:29;;;;;;;3.72;1.80;;;;;;;;;;2079682;28;20093;-91
2022/09/18 00:23:29;;;;;;;3.60;2.10;;;;;;;;;;2080523;28;20032;-92
2022/09/18 00:24:30;;;;;;;3.47;2.03;;;;;;;;;;2079424;28;20025;-91
2022/09/18 00:25:31;;;;;;;3.72;1.95;;;;;;;;;;2072228;28;20061;-92
2022/09/18 00:26:32;;;;;;;3.40;2.08;;;;;;;;;;2080355;28;20030;-92
2022/09/18 00:27:32;;;;;;;4.57;2.35;;;;;;;;;;2072316;28;20029;-91
2022/09/18 00:28:33;;;;;;;3.22;1.90;;;;;;;;;;2087508;28;20033;-91
2022/09/18 00:29:33;;;;;;;4.85;2.05;;;;;;;;;;2095743;28;20344;-90
2022/09/18 00:30:34;;;;;;;10.00;3.22;;;;;;;;;;2078621;28;20338;-90
2022/09/18 00:31:35;;;;;;;2.72;2.00;;;;;;;;;;2079421;28;20049;-91
2022/09/18 00:32:35;;;;;;;3.08;1.90;;;;;;;;;;2079083;28;20449;-91
2022/09/18 00:33:38;;;;;;;3.10;1.95;;;;;;;;;;2070923;28;20129;-91
2022/09/18 00:34:40;;;;;;;3.38;1.70;;;;;;;;;;2071105;28;20030;-92
2022/09/18 00:35:42;;;;;;;4.20;2.60;;;;;;;;;;2071087;28;20495;-91
2022/09/18 00:36:43;;;;;;;5.07;2.13;;;;;;;;;;2087549;28;20031;-91
2022/09/18 00:37:43;;;;;;;3.55;1.95;;;;;;;;;;2095750;28;20020;-92
2022/09/18 00:38:45;;;;;;;2.35;1.70;;;;;;;;;;2095572;28;20435;-91
2022/09/18 00:39:45;;;;;;;2.03;1.73;;;;;;;;;;2095973;28;20024;-92
2022/09/18 00:40:46;;;;;;;3.25;2.22;;;;;;;;;;2079345;28;20043;-92
2022/09/18 00:41:46;;;;;;;4.78;1.92;;;;;;;;;;2079427;28;20099;-91
2022/09/18 00:42:47;;;;;;;4.65;1.90;;;;;;;;;;2079422;28;20025;-91
2022/09/18 00:43:47;;;;;;;3.40;2.30;;;;;;;;;;2071138;28;20041;-91
2022/09/18 00:44:48;;;;;;;3.85;2.25;;;;;;;;;;2079199;28;20421;-91
2022/09/18 00:46:01;;;;;;;4.40;2.10;;;;;;;;;;2070995;28;20397;-91
2022/09/18 00:47:11;;;;;;;2.97;2.13;;;;;;;;;;2079294;28;20052;-92
2022/09/18 00:48:11;;;;;;;5.65;2.03;;;;;;;;;;2080009;28;20056;-91
2022/09/18 00:49:16;;;;;;;3.97;2.00;;;;;;;;;;2095612;28;20032;-90
2022/09/18 00:50:23;;;;;;;3.27;1.80;;;;;;;;;;1738946;28;10173189;-91
2022/09/18 00:51:24;;;;;;;3.35;1.75;;;;;;;;;;2079172;28;20048;-91
2022/09/18 00:52:30;;;;;;;3.95;1.80;;;;;;;;;;2071274;28;20037;-91
2022/09/18 00:53:33;;;;;;;2.95;1.73;;;;;;;;;;2079396;28;20115;-91
2022/09/18 00:54:35;;;;;;;2.42;1.58;;;;;;;;;;2079067;28;20116;-90
2022/09/18 00:55:37;;;;;;;3.95;1.92;;;;;;;;;;2079054;28;20029;-91
2022/09/18 00:56:38;;;;;;;4.25;2.17;;;;;;;;;;2079344;28;20079;-90
2022/09/18 00:57:47;;;;;;;3.45;1.70;;;;;;;;;;2079244;28;20395;-90
2022/09/18 00:58:47;;;;;;;6.25;1.63;;;;;;;;;;2079296;28;20441;-90
2022/09/18 00:59:50;;;;;;;2.90;1.92;;;;;;;;;;2078906;28;20109;-91
2022/09/18 01:00:51;;;;;;;2.85;1.77;;;;;;;;;;2071414;28;20026;-90
2022/09/18 01:01:52;;;;;;;2.67;1.50;;;;;;;;;;2070929;28;20432;-91
2022/09/18 01:02:52;;;;;;;2.20;1.75;;;;;;;;;;2070862;28;20038;-91
2022/09/18 01:03:53;;;;;;;2.92;1.98;;;;;;;;;;2078973;28;20029;-90
2022/09/18 01:04:54;;;;;;;4.13;1.90;;;;;;;;;;2079991;28;20021;-91
2022/09/18 01:05:54;;;;;;;3.15;1.63;;;;;;;;;;2078939;28;20132;-91
2022/09/18 01:07:19;;;;;;;3.10;1.52;;;;;;;;;;2079131;28;20078;-90
2022/09/18 01:08:59;;;;;;;2.42;1.65;;;;;;;;;;2074272;28;20022;-90
2022/09/18 01:10:25;;;;;;;3.85;1.60;;;;;;;;;;2078658;28;20552;-91
2022/09/18 01:11:37;;;;;;;2.92;1.73;;;;;;;;;;2079623;28;20044;-92
2022/09/18 01:12:51;;;;;;;3.05;2.08;;;;;;;;;;2079406;28;20021;-91
2022/09/18 01:13:54;;;;;;;2.72;1.55;;;;;;;;;;2079715;28;20026;-92
2022/09/18 01:15:02;;;;;;;5.47;2.10;;;;;;;;;;2088235;28;20507;-91
2022/09/18 01:16:16;;;;;;;2.90;1.80;;;;;;;;;;2087111;28;20233;-91
2022/09/18 01:17:28;;;;;;;3.08;1.80;;;;;;;;;;2079574;28;20048;-92
2022/09/18 01:18:55;;;;;;;4.75;1.98;;;;;;;;;;2079565;28;20025;-92
2022/09/18 01:20:02;;;;;;;2.60;1.65;;;;;;;;;;2079326;28;20092;-91
2022/09/18 01:21:11;;;;;;;2.65;2.10;;;;;;;;;;2079554;28;20048;-92
2022/09/18 01:22:22;;;;;;;6.13;2.58;;;;;;;;;;2072282;28;20030;-92
2022/09/18 01:23:59;;;;;;;6.18;2.63;;;;;;;;;;1727250;28;10001984;-92
2022/09/18 01:25:26;;;;;;;3.75;1.80;;;;;;;;;;2079340;28;20041;-91
2022/09/18 01:26:42;;;;;;;3.30;2.03;;;;;;;;;;2074822;28;20057;-92
2022/09/18 01:28:11;;;;;;;3.40;1.92;;;;;;;;;;2073416;28;20018;-92
2022/09/18 01:29:20;;;;;;;2.60;1.88;;;;;;;;;;2074814;28;20084;-92
2022/09/18 01:30:21;;;;;;;5.18;2.05;;;;;;;;;;2079346;28;20032;-92
2022/09/18 01:31:50;;;;;;;3.63;2.05;;;;;;;;;;2071036;28;20038;-91
2022/09/18 01:32:57;;;;;;;3.85;2.22;;;;;;;;;;2074590;28;20507;-91
2022/09/18 01:34:12;;;;;;;4.72;1.88;;;;;;;;;;2079255;28;20040;-91
2022/09/18 01:35:22;;;;;;;2.90;2.00;;;;;;;;;;2073407;28;20052;-92
2022/09/18 01:36:25;;;;;;;5.35;2.20;;;;;;;;;;2088597;28;20017;-91
2022/09/18 01:37:32;;;;;;;3.13;1.60;;;;;;;;;;2087153;28;20105;-91
2022/09/18 01:38:37;;;;;;;4.13;2.20;;;;;;;;;;2079301;28;20029;-91
2022/09/18 01:39:45;;;;;;;5.78;2.47;;;;;;;;;;2071712;28;20026;-92
2022/09/18 01:41:00;;;;;;;3.88;2.17;;;;;;;;;;2079713;28;20628;-92
2022/09/18 01:42:03;;;;;;;4.50;2.15;;;;;;;;;;2080459;28;20036;-92
2022/09/18 01:43:07;;;;;;;4.18;2.13;;;;;;;;;;2072915;28;20026;-91
2022/09/18 01:44:13;;;;;;;4.25;2.28;;;;;;;;;;2080930;28;20090;-91
2022/09/18 01:45:21;;;;;;;4.97;2.28;;;;;;;;;;2080887;28;20492;-92
2022/09/18 01:46:24;;;;;;;4.80;1.92;;;;;;;;;;2081191;28;20025;-91
2022/09/18 01:47:28;;;;;;;3.05;2.08;;;;;;;;;;2081701;28;20485;-92
2022/09/18 01:48:33;;;;;;;4.28;2.17;;;;;;;;;;2080877;28;20071;-91
2022/09/18 01:49:40;;;;;;;3.25;2.15;;;;;;;;;;2073219;28;20582;-91
2022/09/18 01:50:48;;;;;;;3.78;2.38;;;;;;;;;;2080800;28;20444;-91
2022/09/18 01:51:53;;;;;;;2.78;2.00;;;;;;;;;;2073631;28;20018;-91
2022/09/18 01:53:14;;;;;;;3.97;2.42;;;;;;;;;;2081160;28;20547;-92
2022/09/18 01:54:18;;;;;;;3.65;2.20;;;;;;;;;;2081235;28;20061;-92
2022/09/18 01:55:23;;;;;;;4.30;2.33;;;;;;;;;;2073406;28;20034;-91
2022/09/18 01:56:36;;;;;;;4.65;2.40;;;;;;;;;;2073425;28;20096;-92
2022/09/18 01:57:45;;;;;;;4.72;2.10;;;;;;;;;;2081161;28;20025;-92
2022/09/18 01:58:48;;;;;;;2.90;2.13;;;;;;;;;;2081836;28;20022;-92
2022/09/18 02:00:01;;;;;;;3.38;2.88;;;;;;;;;;2081284;28;20021;-92
2022/09/18 02:01:08;;;;;;;6.95;2.40;;;;;;;;;;2074535;28;20037;-92
2022/09/18 02:02:17;;;;;;;6.30;3.00;;;;;;;;;;2073686;28;20018;-92
2022/09/18 02:03:21;;;;;;;2.92;2.10;;;;;;;;;;2080991;28;20025;-92
2022/09/18 02:04:26;;;;;;;5.88;2.38;;;;;;;;;;2081000;28;20061;-92
2022/09/18 02:05:34;;;;;;;3.42;2.30;;;;;;;;;;2080818;28;20041;-92
2022/09/18 02:06:53;;;;;;;5.35;2.20;;;;;;;;;;2080877;28;20025;-90
2022/09/18 02:08:14;;;;;;;4.53;1.88;;;;;;;;;;2074956;28;20022;-91
2022/09/18 02:09:14;;;;;;;4.63;2.28;;;;;;;;;;2074885;28;20116;-91
2022/09/18 02:10:16;;;;;;;5.25;2.03;;;;;;;;;;2080334;28;20029;-90
2022/09/18 02:11:19;;;;;;;5.55;1.70;;;;;;;;;;2080406;28;20060;-90
2022/09/18 02:12:23;;;;;;;3.53;1.90;;;;;;;;;;2072393;28;20030;-90
2022/09/18 02:13:28;;;;;;;4.07;1.90;;;;;;;;;;2072673;28;20111;-91
2022/09/18 02:14:37;;;;;;;3.60;2.25;;;;;;;;;;2080492;28;20490;-91
2022/09/18 02:15:39;;;;;;;3.03;2.00;;;;;;;;;;2080858;28;20021;-91
2022/09/18 02:16:45;;;;;;;4.15;1.90;;;;;;;;;;2096722;28;20457;-91
2022/09/18 02:17:52;;;;;;;5.45;2.05;;;;;;;;;;2095838;28;20024;-91
2022/09/18 02:18:55;;;;;;;2.95;1.90;;;;;;;;;;2080658;28;20152;-90
2022/09/18 02:19:59;;;;;;;4.30;1.95;;;;;;;;;;2080440;28;20083;-91
2022/09/18 02:21:01;;;;;;;4.50;1.92;;;;;;;;;;2080119;28;20143;-91
2022/09/18 02:22:06;;;;;;;3.60;2.00;;;;;;;;;;2072271;28;20238;-90
2022/09/18 02:23:08;;;;;;;6.35;2.90;;;;;;;;;;2088815;28;20021;-90
2022/09/18 02:24:11;;;;;;;2.42;1.75;;;;;;;;;;2088262;28;20017;-91
2022/09/18 02:25:17;;;;;;;3.40;1.60;;;;;;;;;;2072255;28;20072;-90
2022/09/18 02:26:18;;;;;;;2.55;1.60;;;;;;;;;;2080169;28;20167;-91
2022/09/18 02:27:24;;;;;;;2.72;1.98;;;;;;;;;;2080768;28;20029;-90
2022/09/18 02:28:27;;;;;;;3.33;1.67;;;;;;;;;;2080003;28;20457;-91
2022/09/18 02:29:29;;;;;;;3.05;1.33;;;;;;;;;;2088787;28;20116;-91
2022/09/18 02:30:30;;;;;;;2.58;1.60;;;;;;;;;;2088366;28;20025;-91
2022/09/18 02:31:30;;;;;;;1.77;1.50;;;;;;;;;;2071956;28;20022;-91
2022/09/18 02:32:31;;;;;;;2.42;1.65;;;;;;;;;;2088483;28;20020;-92
2022/09/18 02:33:34;;;;;;;3.17;1.60;;;;;;;;;;2088622;28;20479;-92
2022/09/18 02:34:35;;;;;;;5.40;1.88;;;;;;;;;;2080547;28;20160;-92
2022/09/18 02:35:44;;;;;;;2.50;1.75;;;;;;;;;;2080626;28;20017;-92
2022/09/18 02:37:09;;;;;;;7.25;1.90;;;;;;;;;;2073380;28;20018;-92
2022/09/18 02:38:34;;;;;;;2.40;1.55;;;;;;;;;;2080547;28;20025;-92
2022/09/18 02:39:53;;;;;;;2.05;1.58;;;;;;;;;;2096723;28;20020;-92
2022/09/18 02:40:59;;;;;;;2.70;1.73;;;;;;;;;;2086189;28;20103;-92
2022/09/18 02:42:11;;;;;;;2.67;1.83;;;;;;;;;;2080579;28;20021;-92
2022/09/18 02:43:30;;;;;;;2.55;1.30;;;;;;;;;;2079869;28;20030;-91
2022/09/18 02:44:46;;;;;;;3.17;1.50;;;;;;;;;;2079949;28;20100;-92
2022/09/18 02:45:55;;;;;;;4.80;1.60;;;;;;;;;;2090358;28;20036;-91
2022/09/18 02:47:15;;;;;;;3.72;1.80;;;;;;;;;;2087377;28;20056;-91
2022/09/18 02:48:31;;;;;;;2.47;1.60;;;;;;;;;;2074739;28;20615;-92
2022/09/18 02:49:42;;;;;;;3.15;1.50;;;;;;;;;;2073897;28;20057;-92
2022/09/18 02:51:00;;;;;;;2.95;1.55;;;;;;;;;;2073567;28;20033;-92
2022/09/18 02:52:12;;;;;;;2.55;1.45;;;;;;;;;;2074469;28;20030;-91
2022/09/18 02:53:35;;;;;;;3.33;1.50;;;;;;;;;;2073709;28;20025;-93
2022/09/18 02:55:16;;;;;;;3.20;1.83;;;;;;;;;;2075192;28;20040;-92
2022/09/18 02:56:32;;;;;;;4.75;1.67;;;;;;;;;;2074650;28;20052;-89
2022/09/18 02:57:41;;;;;;;3.63;1.67;;;;;;;;;;2080094;28;20032;-93
2022/09/18 02:58:49;;;;;;;2.42;1.70;;;;;;;;;;1718808;28;10177560;-92
2022/09/18 02:59:55;;;;;;;3.25;1.80;;;;;;;;;;1727850;28;10001883;-92
2022/09/18 03:00:59;;;;;;;4.38;1.70;;;;;;;;;;2079276;28;20116;-92
2022/09/18 03:02:01;;;;;;;3.85;2.15;;;;;;;;;;2084101;28;20037;-91
2022/09/18 03:03:01;;;;;;;4.60;1.65;;;;;;;;;;2088630;28;20021;-92
2022/09/18 03:04:08;;;;;;;5.97;2.58;;;;;;;;;;2088460;28;20187;-92
2022/09/18 03:05:09;;;;;;;2.15;1.60;;;;;;;;;;2095365;28;20024;-92
2022/09/18 03:06:09;;;;;;;5.03;2.72;;;;;;;;;;2080105;28;20087;-92
2022/09/18 03:07:13;;;;;;;2.40;1.85;;;;;;;;;;2080079;28;20475;-92
2022/09/18 03:08:13;;;;;;;3.83;2.00;;;;;;;;;;2080043;28;20029;-93
2022/09/18 03:09:17;;;;;;;4.35;2.03;;;;;;;;;;2071915;28;20030;-92
2022/09/18 03:10:18;;;;;;;3.42;2.30;;;;;;;;;;2072569;28;20021;-92
2022/09/18 03:11:18;;;;;;;3.22;2.00;;;;;;;;;;2071888;28;20575;-92
2022/09/18 03:12:19;;;;;;;3.75;2.20;;;;;;;;;;2072176;28;20022;-92
2022/09/18 03:13:20;;;;;;;4.15;2.58;;;;;;;;;;2072021;28;20104;-92
2022/09/18 03:14:20;;;;;;;3.22;2.33;;;;;;;;;;2071985;28;20072;-91
2022/09/18 03:15:21;;;;;;;5.13;2.40;;;;;;;;;;2071833;28;20468;-91
2022/09/18 03:16:21;;;;;;;4.38;2.40;;;;;;;;;;2088263;28;20029;-92
2022/09/18 03:17:22;;;;;;;6.15;2.58;;;;;;;;;;2088669;28;20028;-91
2022/09/18 03:18:22;;;;;;;2.72;2.13;;;;;;;;;;2072288;28;20540;-92
2022/09/18 03:19:23;;;;;;;4.38;2.30;;;;;;;;;;2071693;28;20464;-92
2022/09/18 03:20:23;;;;;;;3.03;1.85;;;;;;;;;;2071881;28;20128;-91
2022/09/18 03:21:25;;;;;;;5.25;2.58;;;;;;;;;;2087992;28;20048;-91
2022/09/18 03:22:25;;;;;;;3.55;2.40;;;;;;;;;;2096472;28;20039;-91
2022/09/18 03:23:26;;;;;;;4.80;2.60;;;;;;;;;;2079838;28;20420;-92
2022/09/18 03:24:26;;;;;;;5.75;2.75;;;;;;;;;;2071842;28;20056;-91
2022/09/18 03:25:27;;;;;;;3.65;2.30;;;;;;;;;;2071598;28;20100;-91
2022/09/18 03:26:27;;;;;;;4.28;2.47;;;;;;;;;;2071529;28;20519;-91
2022/09/18 03:27:28;;;;;;;3.38;2.45;;;;;;;;;;2071647;28;20018;-91
2022/09/18 03:28:31;;;;;;;4.40;2.63;;;;;;;;;;2071456;28;20022;-92
2022/09/18 03:29:32;;;;;;;5.22;2.63;;;;;;;;;;2072079;28;20022;-92
2022/09/18 03:30:32;;;;;;;5.78;2.60;;;;;;;;;;2089377;28;20039;-91
2022/09/18 03:31:33;;;;;;;4.90;2.63;;;;;;;;;;2090083;28;20029;-90
2022/09/18 03:32:33;;;;;;;4.07;2.50;;;;;;;;;;2080324;28;20029;-90
2022/09/18 03:33:34;;;;;;;4.15;2.50;;;;;;;;;;2081647;28;20088;-90
2022/09/18 03:34:34;;;;;;;6.10;2.60;;;;;;;;;;2095927;28;20055;-90
2022/09/18 03:35:35;;;;;;;7.00;3.20;;;;;;;;;;2087776;28;20483;-90
2022/09/18 03:36:35;;;;;;;5.90;2.53;;;;;;;;;;2079898;28;20436;-91
2022/09/18 03:37:36;;;;;;;6.68;3.20;;;;;;;;;;2096141;28;20070;-91
2022/09/18 03:38:40;;;;;;;4.68;2.20;;;;;;;;;;1740162;28;10181481;-91
2022/09/18 03:39:41;;;;;;;5.10;2.67;;;;;;;;;;2069209;28;20128;-91
2022/09/18 03:40:44;;;;;;;5.95;2.75;;;;;;;;;;2088055;28;20013;-91
2022/09/18 03:41:45;;;;;;;6.78;3.65;;;;;;;;;;2087331;28;20017;-90
2022/09/18 03:42:45;;;;;;;4.40;2.50;;;;;;;;;;2079616;28;20037;-91
2022/09/18 03:43:46;;;;;;;4.45;2.25;;;;;;;;;;2071184;28;20069;-91
2022/09/18 03:44:46;;;;;;;4.07;3.13;;;;;;;;;;2071270;28;20070;-91
2022/09/18 03:45:47;;;;;;;4.45;2.72;;;;;;;;;;2079536;28;20412;-91
2022/09/18 03:46:48;;;;;;;3.55;2.67;;;;;;;;;;2079590;28;20049;-91
2022/09/18 03:47:48;;;;;;;3.33;2.50;;;;;;;;;;2079805;28;20111;-91
2022/09/18 03:48:50;;;;;;;5.18;2.30;;;;;;;;;;2080182;28;20476;-91
2022/09/18 03:49:50;;;;;;;4.47;2.60;;;;;;;;;;2079779;28;20063;-91
2022/09/18 03:50:51;;;;;;;6.70;2.55;;;;;;;;;;2071587;28;20029;-91
2022/09/18 03:51:51;;;;;;;3.88;2.65;;;;;;;;;;2080008;28;20031;-90
2022/09/18 03:52:52;;;;;;;3.95;2.30;;;;;;;;;;2080628;28;20068;-91
2022/09/18 03:53:52;;;;;;;3.58;2.50;;;;;;;;;;2079809;28;20078;-91
2022/09/18 03:54:53;;;;;;;4.45;3.00;;;;;;;;;;2079960;28;20026;-92
2022/09/18 03:55:54;;;;;;;4.75;3.00;;;;;;;;;;2088188;28;20017;-91
2022/09/18 03:56:54;;;;;;;6.47;3.80;;;;;;;;;;2088255;28;20017;-92
2022/09/18 03:57:56;;;;;;;5.82;3.38;;;;;;;;;;2079888;28;20100;-92
2022/09/18 03:58:56;;;;;;;7.63;3.13;;;;;;;;;;2080140;28;20029;-92
2022/09/18 03:59:57;;;;;;;7.80;3.97;;;;;;;;;;2088560;28;20546;-92
2022/09/18 04:00:57;;;;;;;7.65;4.13;;;;;;;;;;2088518;28;20336;-91
2022/09/18 04:01:57;;;;;;;6.95;4.38;;;;;;;;;;2071788;28;20032;-92
2022/09/18 04:02:58;;;;;;;7.03;4.20;;;;;;;;;;2071442;28;20026;-92
2022/09/18 04:03:58;;;;;;;9.30;4.57;;;;;;;;;;1725883;28;10200271;-92
2022/09/18 04:05:03;;;;;;;7.53;4.25;;;;;;;;;;2079691;28;20444;-93
2022/09/18 04:06:04;;;;;;;8.98;5.38;;;;;;;;;;2071828;28;20069;-92
2022/09/18 04:07:04;;;;;;;8.75;5.28;;;;;;;;;;2072023;28;20025;-92
2022/09/18 04:08:05;;;;;;;11.15;5.10;;;;;;;;;;2071890;28;20024;-93
2022/09/18 04:09:05;;;;;;;8.82;5.75;;;;;;;;;;2079805;28;20519;-92
2022/09/18 04:10:06;;;;;;;9.02;5.85;;;;;;;;;;1732134;28;10001430;-92
2022/09/18 04:11:07;;;;;;;10.13;5.63;;;;;;;;;;2079844;28;20504;-91
2022/09/18 04:12:07;;;;;;;13.48;6.53;;;;;;;;;;2080210;28;20100;-92
2022/09/18 04:13:08;;;;;;;10.23;6.05;;;;;;;;;;2079736;28;20018;-92
2022/09/18 04:14:09;;;;;;;11.68;6.68;;;;;;;;;;2079314;28;20059;-91
2022/09/18 04:15:09;;;;;;;12.75;7.32;;;;;;;;;;2079362;28;20099;-92
2022/09/18 04:16:10;;;;;;;13.15;7.28;;;;;;;;;;2079438;28;20018;-92
2022/09/18 04:17:10;;;;;;;14.80;6.88;;;;;;;;;;2071150;28;20108;-91
2022/09/18 04:18:11;;;;;;;15.35;7.80;;;;;;;;;;2070806;28;20424;-91
2022/09/18 04:19:11;;;;;;;16.52;7.85;;;;;;;;;;2079276;28;20021;-90
2022/09/18 04:20:11;;;;;;;18.23;8.80;;;;;;;;;;2080689;28;20021;-91
2022/09/18 04:21:12;;;;;;;15.45;8.50;;;;;;;;;;2080315;28;20025;-91
2022/09/18 04:22:12;;;;;;;17.90;9.90;;;;;;;;;;2080148;28;20025;-91
2022/09/18 04:23:13;;;;;;;18.27;10.20;;;;;;;;;;2079656;28;20136;-92
2022/09/18 04:24:13;;;;;;;17.92;9.98;;;;;;;;;;2070946;28;20071;-90
2022/09/18 04:25:14;;;;;;;17.80;9.57;;;;;;;;;;2079868;28;20566;-90
2022/09/18 04:26:14;;;;;;;18.38;9.68;;;;;;;;;;2079584;28;20025;-89
2022/09/18 04:27:15;;;;;;;19.10;10.13;;;;;;;;;;2079649;28;20108;-90
2022/09/18 04:28:16;;;;;;;18.38;10.55;;;;;;;;;;2079118;28;20017;-90
2022/09/18 04:29:16;;;;;;;21.08;10.48;;;;;;;;;;2071422;28;20524;-90
2022/09/18 04:30:17;;;;;;;22.15;11.30;;;;;;;;;;2079691;28;20440;-92
2022/09/18 04:31:17;;;;;;;21.27;10.25;;;;;;;;;;2079337;28;20340;-90
2022/09/18 04:32:18;;;;;;;21.42;11.10;;;;;;;;;;2087850;28;20021;-91
2022/09/18 04:33:18;;;;;;;22.55;10.15;;;;;;;;;;2096104;28;20108;-91
2022/09/18 04:34:19;;;;;;;20.33;8.98;;;;;;;;;;2079519;28;20029;-93
2022/09/18 04:35:19;;;;;;;19.75;9.77;;;;;;;;;;2071811;28;20021;-94
2022/09/18 04:36:20;;;;;;;21.77;9.88;;;;;;;;;;2080197;28;20488;-93
2022/09/18 04:37:20;;;;;;;21.42;9.93;;;;;;;;;;2079511;28;20326;-92
2022/09/18 04:38:26;;;;;;;23.48;10.20;;;;;;;;;;2080480;28;20029;-93
2022/09/18 04:39:27;;;;;;;22.50;8.88;;;;;;;;;;2080114;28;20021;-93
2022/09/18 04:40:27;;;;;;;20.38;9.25;;;;;;;;;;2071588;28;20531;-94
2022/09/18 04:41:28;;;;;;;21.67;9.43;;;;;;;;;;2071686;28;20025;-93
2022/09/18 04:42:28;;;;;;;20.42;9.88;;;;;;;;;;2071310;28;20073;-92
2022/09/18 04:43:29;;;;;;;18.67;8.82;;;;;;;;;;2079592;28;20112;-91
2022/09/18 04:44:32;;;;;;;18.88;8.75;;;;;;;;;;2080185;28;20476;-94
2022/09/18 04:45:32;;;;;;;17.73;8.07;;;;;;;;;;2079550;28;20037;-92
2022/09/18 04:46:33;;;;;;;18.35;8.73;;;;;;;;;;2071851;28;20489;-92
2022/09/18 04:47:34;;;;;;;19.23;10.43;;;;;;;;;;2080052;28;20140;-91
2022/09/18 04:48:34;;;;;;;18.52;9.48;;;;;;;;;;2080672;28;20025;-92
2022/09/18 04:49:35;;;;;;;19.92;9.50;;;;;;;;;;2080983;28;20029;-94
2022/09/18 04:50:35;;;;;;;19.80;10.40;;;;;;;;;;2080619;28;20021;-92
2022/09/18 04:51:35;;;;;;;18.98;9.93;;;;;;;;;;2079907;28;20144;-91
2022/09/18 04:52:36;;;;;;;16.65;9.00;;;;;;;;;;2080378;28;20032;-92
2022/09/18 04:53:38;;;;;;;19.58;9.85;;;;;;;;;;2079292;28;20053;-91
2022/09/18 04:54:39;;;;;;;17.45;8.98;;;;;;;;;;2079279;28;20028;-92
2022/09/18 04:55:43;;;;;;;24.25;11.25;;;;;;;;;;2080186;28;20353;-93
2022/09/18 04:56:43;;;;;;;18.67;9.75;;;;;;;;;;2095841;28;20028;-91
2022/09/18 04:57:44;;;;;;;16.40;9.38;;;;;;;;;;1746318;28;10001968;-92
2022/09/18 04:58:45;;;;;;;17.67;9.35;;;;;;;;;;2078956;28;20471;-92
2022/09/18 04:59:45;;;;;;;17.35;9.57;;;;;;;;;;2079922;28;20484;-95
2022/09/18 05:00:51;;;;;;;18.88;9.93;;;;;;;;;;1912317;28;10231951;-91
2022/09/18 05:01:51;;;;;;;18.40;10.77;;;;;;;;;;2078974;28;20296;-91
2022/09/18 05:02:52;;;;;;;18.63;10.25;;;;;;;;;;2079152;28;20135;-92
2022/09/18 05:03:53;;;;;;;18.65;10.05;;;;;;;;;;2079317;28;20067;-92
2022/09/18 05:04:53;;;;;;;19.80;9.93;;;;;;;;;;2079222;28;20503;-91
2022/09/18 05:05:54;;;;;;;20.92;9.35;;;;;;;;;;2079356;28;20036;-93
2022/09/18 05:06:54;;;;;;;22.23;10.25;;;;;;;;;;2087015;28;20031;-93
2022/09/18 05:08:00;;;;;;;16.30;9.88;;;;;;;;;;2086940;28;20051;-91
2022/09/18 05:09:01;;;;;;;13.35;8.52;;;;;;;;;;2079213;28;20108;-92
2022/09/18 05:10:01;;;;;;;16.15;9.95;;;;;;;;;;2078792;28;20033;-91
2022/09/18 05:11:03;;;;;;;18.10;9.48;;;;;;;;;;2078839;28;20109;-91
2022/09/18 05:12:04;;;;;;;14.32;8.77;;;;;;;;;;2079426;28;20036;-91
2022/09/18 05:13:04;;;;;;;12.93;7.75;;;;;;;;;;2079882;28;20033;-90
2022/09/18 05:14:05;;;;;;;14.45;8.20;;;;;;;;;;2079422;28;20461;-91
2022/09/18 05:15:07;;;;;;;11.40;6.70;;;;;;;;;;2079179;28;20029;-92
2022/09/18 05:16:08;;;;;;;7.20;4.25;;;;;;;;;;2079979;28;20035;-93
2022/09/18 05:17:08;;;;;;;8.07;5.13;;;;;;;;;;2078655;28;20029;-91
2022/09/18 05:18:10;;;;;;;8.80;4.30;;;;;;;;;;2079063;28;20033;-92
2022/09/18 05:19:10;;;;;;;5.72;3.72;;;;;;;;;;2079482;28;20040;-91
2022/09/18 05:20:11;;;;;;;6.75;4.18;;;;;;;;;;2079203;28;20049;-92
2022/09/18 05:21:12;;;;;;;4.13;3.40;;;;;;;;;;2070517;28;20175;-91
2022/09/18 05:22:12;;;;;;;4.65;3.50;;;;;;;;;;2086870;28;20025;-92
2022/09/18 05:23:13;;;;;;;6.00;3.38;;;;;;;;;;2095367;28;20182;-92
2022/09/18 05:24:14;;;;;;;4.57;3.30;;;;;;;;;;2080430;28;20025;-92
2022/09/18 05:25:14;;;;;;;6.13;2.75;;;;;;;;;;2079099;28;20029;-92
2022/09/18 05:26:16;;;;;;;16.55;8.05;;;;;;;;;;2078880;28;20042;-92
2022/09/18 05:27:16;;;;;;;6.35;3.58;;;;;;;;;;2070419;28;20129;-90
2022/09/18 05:28:19;;;;;;;4.43;2.42;;;;;;;;;;2078608;28;20112;-90
2022/09/18 05:29:20;;;;;;;6.03;3.58;;;;;;;;;;2078241;28;20021;-91
2022/09/18 05:30:22;;;;;;;5.05;2.05;;;;;;;;;;2078657;28;20148;-92
2022/09/18 05:31:22;;;;;;;2.55;2.20;;;;;;;;;;2087155;28;20036;-91
2022/09/18 05:32:23;;;;;;;6.35;2.75;;;;;;;;;;2087044;28;20458;-91
2022/09/18 05:33:24;;;;;;;3.08;2.30;;;;;;;;;;2071110;28;20018;-92
2022/09/18 05:34:25;;;;;;;5.50;1.88;;;;;;;;;;2078877;28;20033;-92
2022/09/18 05:35:27;;;;;;;4.18;1.77;;;;;;;;;;2070969;28;20065;-92
2022/09/18 05:36:28;;;;;;;2.72;2.13;;;;;;;;;;2078942;28;20021;-91
2022/09/18 05:37:28;;;;;;;1.80;1.70;;;;;;;;;;2080016;28;20068;-92
2022/09/18 05:38:29;;;;;;;2.05;1.70;;;;;;;;;;2080021;28;20510;-91
2022/09/18 05:39:30;;;;;;;3.47;1.70;;;;;;;;;;2079469;28;20037;-93
2022/09/18 05:40:33;;;;;;;4.90;1.75;;;;;;;;;;2070945;28;20500;-92
2022/09/18 05:41:34;;;;;;;2.75;1.83;;;;;;;;;;2079388;28;20092;-92
2022/09/18 05:42:34;;;;;;;2.40;1.60;;;;;;;;;;2079764;28;20021;-91
2022/09/18 05:43:35;;;;;;;3.72;1.73;;;;;;;;;;2078921;28;20024;-91
2022/09/18 05:44:35;;;;;;;3.35;1.70;;;;;;;;;;2071037;28;20473;-92
2022/09/18 05:45:36;;;;;;;2.50;1.80;;;;;;;;;;2071044;28;20105;-90
2022/09/18 05:46:37;;;;;;;1.90;1.40;;;;;;;;;;2079222;28;20025;-91
2022/09/18 05:47:37;;;;;;;5.15;1.42;;;;;;;;;;2079250;28;20017;-92
2022/09/18 05:48:38;;;;;;;3.80;1.58;;;;;;;;;;2079134;28;20021;-91
2022/09/18 05:49:38;;;;;;;1.63;1.33;;;;;;;;;;2079597;28;20594;-93
2022/09/18 05:50:41;;;;;;;3.47;1.27;;;;;;;;;;2078624;28;20423;-90
2022/09/18 05:51:41;;;;;;;2.28;1.50;;;;;;;;;;2080390;28;20100;-94
2022/09/18 05:52:44;;;;;;;1.17;1.08;;;;;;;;;;2082685;28;20400;-92
2022/09/18 05:53:47;;;;;;;3.03;1.30;;;;;;;;;;2080131;28;20014;-91
2022/09/18 05:54:47;;;;;;;2.83;1.10;;;;;;;;;;2079381;28;20031;-91
2022/09/18 05:55:51;;;;;;;1.30;1.10;;;;;;;;;;2071315;28;20050;-92
2022/09/18 05:56:52;;;;;;;1.55;0.90;;;;;;;;;;2070923;28;20093;-91
2022/09/18 05:57:54;;;;;;;3.63;1.05;;;;;;;;;;2071982;28;20377;-88
2022/09/18 05:58:55;;;;;;;1.65;0.98;;;;;;;;;;2088603;28;20093;-90
2022/09/18 05:59:56;;;;;;;1.77;1.10;;;;;;;;;;2088538;28;20036;-90
2022/09/18 06:01:00;;;;;;;1.40;0.95;;;;;;;;;;2080825;28;20021;-91
2022/09/18 06:02:00;;;;;;;0.82;0.80;;;;;;;;;;2082566;28;20021;-91
2022/09/18 06:03:03;;;;;;;3.20;1.20;;;;;;;;;;2081465;28;20087;-91
2022/09/18 06:04:04;;;;;;;1.67;0.97;;;;;;;;;;1734685;28;10002087;-91
2022/09/18 06:05:05;;;;;;;1.45;0.73;;;;;;;;;;2081209;28;20447;-91
2022/09/18 06:06:05;;;;;;;1.73;1.00;;;;;;;;;;2084739;28;20420;-91
2022/09/18 06:07:06;;;;;;;1.13;1.00;;;;;;;;;;1728734;28;10165958;-91
2022/09/18 06:08:09;;;;;;;1.67;0.70;;;;;;;;;;2071543;28;20246;-91
2022/09/18 06:09:09;;;;;;;1.30;0.98;;;;;;;;;;2071722;28;20037;-92
2022/09/18 06:10:10;;;;;;;1.38;0.90;;;;;;;;;;2080282;28;20032;-93
2022/09/18 06:11:10;;;;;;;2.33;0.88;;;;;;;;;;2079502;28;20041;-93
2022/09/18 06:12:11;;;;;;;2.22;1.05;;;;;;;;;;2071730;28;20029;-91
2022/09/18 06:13:14;;;;;;;2.47;0.85;;;;;;;;;;2080422;28;20422;-92
2022/09/18 06:14:15;;;;;;;1.85;0.80;;;;;;;;;;2080516;28;20029;-92
2022/09/18 06:15:16;;;;;;;1.08;0.80;;;;;;;;;;2072412;28;20033;-92
2022/09/18 06:16:18;;;;;;;1.60;0.70;;;;;;;;;;1724097;28;10002047;-89
2022/09/18 06:17:19;;;;;;;0.60;0.50;;;;;;;;;;2082141;28;20026;-91
2022/09/18 06:18:20;;;;;;;3.22;0.88;;;;;;;;;;2085038;28;20059;-90
2022/09/18 06:19:20;;;;;;;1.23;0.80;;;;;;;;;;1719138;28;10187682;-91
2022/09/18 06:20:20;;;;;;;1.45;0.70;;;;;;;;;;2062839;28;20024;-92